sensor_id;sensor_type;location;lat;lon;timestamp;P1;durP1;ratioP1;P2;durP2;ratioP2
24557;SDS011;12726;49.148;8.582;2023-03-31T00:02:36;8.23;;;1.50;;
24557;SDS011;12726;49.148;8.582;2023-03-31T00:05:24;6.95;;;1.23;;
24557;SDS011;12726;49.148;8.582;2023-03-31T00:08:10;3.75;;;1.20;;
24557;SDS011;12726;49.148;8.582;2023-03-31T00:10:57;4.55;;;1.25;;
24557;SDS011;12726;49.148;8.582;2023-03-31T00:13:43;5.53;;;1.45;;
24557;SDS011;12726;49.148;8.582;2023-03-31T00:16:30;5.28;;;1.13;;
24557;SDS011;12726;49.148;8.582;2023-03-31T00:19:16;8.23;;;1.40;;
24557;SDS011;12726;49.148;8.582;2023-03-31T00:22:04;5.70;;;1.50;;
24557;SDS011;12726;49.148;8.582;2023-03-31T00:24:49;8.25;;;1.30;;
24557;SDS011;12726;49.148;8.582;2023-03-31T00:27:34;4.45;;;1.42;;
24557;SDS011;12726;49.148;8.582;2023-03-31T00:30:20;6.00;;;1.58;;
24557;SDS011;12726;49.148;8.582;2023-03-31T00:33:06;6.95;;;1.70;;
24557;SDS011;12726;49.148;8.582;2023-03-31T00:35:52;4.18;;;1.20;;
24557;SDS011;12726;49.148;8.582;2023-03-31T00:38:39;7.43;;;1.42;;
24557;SDS011;12726;49.148;8.582;2023-03-31T00:41:29;7.63;;;1.50;;
24557;SDS011;12726;49.148;8.582;2023-03-31T00:44:15;5.93;;;1.30;;
24557;SDS011;12726;49.148;8.582;2023-03-31T00:47:05;6.10;;;1.60;;
24557;SDS011;12726;49.148;8.582;2023-03-31T00:49:58;7.65;;;1.40;;
24557;SDS011;12726;49.148;8.582;2023-03-31T00:52:43;6.15;;;1.20;;
24557;SDS011;12726;49.148;8.582;2023-03-31T00:55:32;7.90;;;1.35;;
24557;SDS011;12726;49.148;8.582;2023-03-31T00:58:22;5.45;;;1.05;;
24557;SDS011;12726;49.148;8.582;2023-03-31T01:01:12;5.38;;;1.15;;
24557;SDS011;12726;49.148;8.582;2023-03-31T01:04:02;5.40;;;2.28;;
24557;SDS011;12726;49.148;8.582;2023-03-31T01:06:52;4.10;;;1.40;;
24557;SDS011;12726;49.148;8.582;2023-03-31T01:09:43;5.28;;;1.40;;
24557;SDS011;12726;49.148;8.582;2023-03-31T01:12:30;5.20;;;1.50;;
24557;SDS011;12726;49.148;8.582;2023-03-31T01:15:18;4.43;;;1.33;;
24557;SDS011;12726;49.148;8.582;2023-03-31T01:18:03;5.65;;;1.35;;
24557;SDS011;12726;49.148;8.582;2023-03-31T01:20:55;7.35;;;1.50;;
24557;SDS011;12726;49.148;8.582;2023-03-31T01:37:29;3.67;;;1.38;;
24557;SDS011;12726;49.148;8.582;2023-03-31T01:40:49;9.27;;;1.60;;
24557;SDS011;12726;49.148;8.582;2023-03-31T01:43:46;4.43;;;0.93;;
24557;SDS011;12726;49.148;8.582;2023-03-31T01:46:40;3.65;;;1.30;;
24557;SDS011;12726;49.148;8.582;2023-03-31T01:49:32;6.22;;;1.00;;
24557;SDS011;12726;49.148;8.582;2023-03-31T01:52:22;4.35;;;1.05;;
24557;SDS011;12726;49.148;8.582;2023-03-31T01:55:15;5.50;;;1.17;;
24557;SDS011;12726;49.148;8.582;2023-03-31T01:58:06;5.07;;;1.20;;
24557;SDS011;12726;49.148;8.582;2023-03-31T02:00:57;4.28;;;0.98;;
24557;SDS011;12726;49.148;8.582;2023-03-31T02:03:47;5.45;;;1.08;;
24557;SDS011;12726;49.148;8.582;2023-03-31T02:06:38;7.55;;;1.65;;
24557;SDS011;12726;49.148;8.582;2023-03-31T02:09:27;5.95;;;1.15;;
24557;SDS011;12726;49.148;8.582;2023-03-31T02:12:15;5.18;;;1.15;;
24557;SDS011;12726;49.148;8.582;2023-03-31T02:15:07;4.50;;;1.02;;
24557;SDS011;12726;49.148;8.582;2023-03-31T02:17:56;3.00;;;0.93;;
24557;SDS011;12726;49.148;8.582;2023-03-31T02:20:44;6.50;;;1.20;;
24557;SDS011;12726;49.148;8.582;2023-03-31T02:23:32;5.22;;;1.20;;
24557;SDS011;12726;49.148;8.582;2023-03-31T02:26:21;5.30;;;1.20;;
24557;SDS011;12726;49.148;8.582;2023-03-31T02:29:09;3.65;;;1.08;;
24557;SDS011;12726;49.148;8.582;2023-03-31T02:31:57;2.78;;;1.02;;
24557;SDS011;12726;49.148;8.582;2023-03-31T02:34:48;3.95;;;1.10;;
24557;SDS011;12726;49.148;8.582;2023-03-31T02:37:35;3.63;;;1.00;;
24557;SDS011;12726;49.148;8.582;2023-03-31T02:40:25;4.93;;;0.88;;
24557;SDS011;12726;49.148;8.582;2023-03-31T02:43:13;6.97;;;1.60;;
24557;SDS011;12726;49.148;8.582;2023-03-31T02:45:58;5.85;;;1.38;;
24557;SDS011;12726;49.148;8.582;2023-03-31T02:48:48;9.40;;;1.58;;
24557;SDS011;12726;49.148;8.582;2023-03-31T02:51:43;6.70;;;1.38;;
24557;SDS011;12726;49.148;8.582;2023-03-31T02:54:47;6.68;;;1.52;;
24557;SDS011;12726;49.148;8.582;2023-03-31T02:57:47;3.95;;;1.25;;
24557;SDS011;12726;49.148;8.582;2023-03-31T03:00:59;6.57;;;1.50;;
24557;SDS011;12726;49.148;8.582;2023-03-31T03:04:08;5.80;;;1.27;;
24557;SDS011;12726;49.148;8.582;2023-03-31T03:07:04;4.72;;;1.40;;
24557;SDS011;12726;49.148;8.582;2023-03-31T03:09:56;6.78;;;1.45;;
24557;SDS011;12726;49.148;8.582;2023-03-31T03:12:48;6.28;;;1.42;;
24557;SDS011;12726;49.148;8.582;2023-03-31T03:15:42;5.38;;;1.70;;
24557;SDS011;12726;49.148;8.582;2023-03-31T03:18:31;5.32;;;1.55;;
24557;SDS011;12726;49.148;8.582;2023-03-31T03:21:17;6.53;;;1.40;;
24557;SDS011;12726;49.148;8.582;2023-03-31T03:24:03;4.10;;;1.20;;
24557;SDS011;12726;49.148;8.582;2023-03-31T03:26:49;6.50;;;1.45;;
24557;SDS011;12726;49.148;8.582;2023-03-31T03:29:34;6.97;;;1.85;;
24557;SDS011;12726;49.148;8.582;2023-03-31T03:32:20;4.78;;;1.45;;
24557;SDS011;12726;49.148;8.582;2023-03-31T03:35:05;4.35;;;1.40;;
24557;SDS011;12726;49.148;8.582;2023-03-31T03:37:53;4.03;;;1.50;;
24557;SDS011;12726;49.148;8.582;2023-03-31T03:40:38;4.55;;;2.28;;
24557;SDS011;12726;49.148;8.582;2023-03-31T03:43:24;7.38;;;1.58;;
24557;SDS011;12726;49.148;8.582;2023-03-31T03:46:09;4.82;;;1.73;;
24557;SDS011;12726;49.148;8.582;2023-03-31T03:48:54;6.07;;;1.50;;
24557;SDS011;12726;49.148;8.582;2023-03-31T03:51:39;6.82;;;2.00;;
24557;SDS011;12726;49.148;8.582;2023-03-31T03:54:26;5.18;;;1.40;;
24557;SDS011;12726;49.148;8.582;2023-03-31T03:57:11;5.97;;;1.42;;
24557;SDS011;12726;49.148;8.582;2023-03-31T03:59:57;6.70;;;1.55;;
24557;SDS011;12726;49.148;8.582;2023-03-31T04:02:42;3.40;;;1.35;;
24557;SDS011;12726;49.148;8.582;2023-03-31T04:05:27;7.32;;;1.90;;
24557;SDS011;12726;49.148;8.582;2023-03-31T04:08:13;7.32;;;1.50;;
24557;SDS011;12726;49.148;8.582;2023-03-31T04:11:00;7.90;;;1.83;;
24557;SDS011;12726;49.148;8.582;2023-03-31T04:13:45;6.50;;;1.40;;
24557;SDS011;12726;49.148;8.582;2023-03-31T04:16:31;4.30;;;1.55;;
24557;SDS011;12726;49.148;8.582;2023-03-31T04:19:17;6.60;;;1.77;;
24557;SDS011;12726;49.148;8.582;2023-03-31T04:22:04;5.38;;;1.73;;
24557;SDS011;12726;49.148;8.582;2023-03-31T04:24:54;4.65;;;1.60;;
24557;SDS011;12726;49.148;8.582;2023-03-31T04:27:42;5.70;;;1.50;;
24557;SDS011;12726;49.148;8.582;2023-03-31T04:30:29;8.95;;;1.90;;
24557;SDS011;12726;49.148;8.582;2023-03-31T04:33:14;6.20;;;1.70;;
24557;SDS011;12726;49.148;8.582;2023-03-31T04:36:00;7.25;;;1.80;;
24557;SDS011;12726;49.148;8.582;2023-03-31T04:38:49;4.72;;;1.65;;
24557;SDS011;12726;49.148;8.582;2023-03-31T04:41:37;5.03;;;1.38;;
24557;SDS011;12726;49.148;8.582;2023-03-31T04:44:24;4.03;;;1.63;;
24557;SDS011;12726;49.148;8.582;2023-03-31T04:47:09;6.03;;;1.67;;
24557;SDS011;12726;49.148;8.582;2023-03-31T04:49:55;7.82;;;1.80;;
24557;SDS011;12726;49.148;8.582;2023-03-31T04:52:40;4.43;;;1.40;;
24557;SDS011;12726;49.148;8.582;2023-03-31T04:55:25;6.93;;;1.73;;
24557;SDS011;12726;49.148;8.582;2023-03-31T04:58:10;3.30;;;1.70;;
24557;SDS011;12726;49.148;8.582;2023-03-31T05:00:57;6.03;;;1.63;;
24557;SDS011;12726;49.148;8.582;2023-03-31T05:03:43;7.15;;;1.80;;
24557;SDS011;12726;49.148;8.582;2023-03-31T05:06:30;5.30;;;1.73;;
24557;SDS011;12726;49.148;8.582;2023-03-31T05:09:15;3.47;;;1.60;;
24557;SDS011;12726;49.148;8.582;2023-03-31T05:12:00;4.32;;;1.85;;
24557;SDS011;12726;49.148;8.582;2023-03-31T05:14:46;6.30;;;2.70;;
24557;SDS011;12726;49.148;8.582;2023-03-31T05:17:33;4.93;;;2.03;;
24557;SDS011;12726;49.148;8.582;2023-03-31T05:20:20;6.22;;;1.90;;
24557;SDS011;12726;49.148;8.582;2023-03-31T05:23:06;5.32;;;2.35;;
24557;SDS011;12726;49.148;8.582;2023-03-31T05:25:51;5.13;;;2.13;;
24557;SDS011;12726;49.148;8.582;2023-03-31T05:28:37;6.07;;;2.80;;
24557;SDS011;12726;49.148;8.582;2023-03-31T05:31:22;7.22;;;2.33;;
24557;SDS011;12726;49.148;8.582;2023-03-31T05:34:09;7.45;;;2.85;;
24557;SDS011;12726;49.148;8.582;2023-03-31T05:36:54;6.95;;;2.45;;
24557;SDS011;12726;49.148;8.582;2023-03-31T05:39:39;4.60;;;2.00;;
24557;SDS011;12726;49.148;8.582;2023-03-31T05:42:25;5.32;;;2.40;;
24557;SDS011;12726;49.148;8.582;2023-03-31T05:45:10;11.50;;;2.95;;
24557;SDS011;12726;49.148;8.582;2023-03-31T05:47:56;5.90;;;2.30;;
24557;SDS011;12726;49.148;8.582;2023-03-31T05:50:43;5.40;;;2.60;;
24557;SDS011;12726;49.148;8.582;2023-03-31T05:53:29;7.60;;;2.70;;
24557;SDS011;12726;49.148;8.582;2023-03-31T05:56:14;7.70;;;2.63;;
24557;SDS011;12726;49.148;8.582;2023-03-31T05:58:59;6.15;;;2.53;;
24557;SDS011;12726;49.148;8.582;2023-03-31T06:01:44;7.00;;;2.65;;
24557;SDS011;12726;49.148;8.582;2023-03-31T06:04:30;7.82;;;3.33;;
24557;SDS011;12726;49.148;8.582;2023-03-31T06:07:17;6.03;;;3.22;;
24557;SDS011;12726;49.148;8.582;2023-03-31T06:10:05;8.55;;;3.40;;
24557;SDS011;12726;49.148;8.582;2023-03-31T06:12:53;5.45;;;3.08;;
24557;SDS011;12726;49.148;8.582;2023-03-31T06:15:38;6.22;;;2.83;;
24557;SDS011;12726;49.148;8.582;2023-03-31T06:18:23;5.80;;;3.22;;
24557;SDS011;12726;49.148;8.582;2023-03-31T06:21:09;8.27;;;3.70;;
24557;SDS011;12726;49.148;8.582;2023-03-31T06:23:58;7.10;;;3.35;;
24557;SDS011;12726;49.148;8.582;2023-03-31T06:26:43;6.95;;;4.10;;
24557;SDS011;12726;49.148;8.582;2023-03-31T06:29:29;8.80;;;3.53;;
24557;SDS011;12726;49.148;8.582;2023-03-31T06:32:14;8.52;;;3.67;;
24557;SDS011;12726;49.148;8.582;2023-03-31T06:35:00;7.47;;;3.28;;
24557;SDS011;12726;49.148;8.582;2023-03-31T06:37:45;10.60;;;3.03;;
24557;SDS011;12726;49.148;8.582;2023-03-31T06:40:32;9.65;;;4.07;;
24557;SDS011;12726;49.148;8.582;2023-03-31T06:43:17;7.30;;;3.28;;
24557;SDS011;12726;49.148;8.582;2023-03-31T06:46:03;4.60;;;3.22;;
24557;SDS011;12726;49.148;8.582;2023-03-31T06:48:48;9.23;;;3.42;;
24557;SDS011;12726;49.148;8.582;2023-03-31T06:51:34;7.88;;;3.67;;
24557;SDS011;12726;49.148;8.582;2023-03-31T06:54:19;5.97;;;3.40;;
24557;SDS011;12726;49.148;8.582;2023-03-31T06:57:05;5.45;;;3.55;;
24557;SDS011;12726;49.148;8.582;2023-03-31T06:59:51;13.18;;;3.80;;
24557;SDS011;12726;49.148;8.582;2023-03-31T07:02:36;5.88;;;3.03;;
24557;SDS011;12726;49.148;8.582;2023-03-31T07:05:22;6.68;;;3.40;;
24557;SDS011;12726;49.148;8.582;2023-03-31T07:08:09;7.43;;;3.25;;
24557;SDS011;12726;49.148;8.582;2023-03-31T07:10:55;10.82;;;3.33;;
24557;SDS011;12726;49.148;8.582;2023-03-31T07:13:43;10.45;;;4.05;;
24557;SDS011;12726;49.148;8.582;2023-03-31T07:16:28;5.03;;;3.08;;
24557;SDS011;12726;49.148;8.582;2023-03-31T07:19:15;7.15;;;3.10;;
24557;SDS011;12726;49.148;8.582;2023-03-31T07:22:01;8.23;;;4.15;;
24557;SDS011;12726;49.148;8.582;2023-03-31T07:24:47;5.57;;;2.67;;
24557;SDS011;12726;49.148;8.582;2023-03-31T07:27:32;7.13;;;2.70;;
24557;SDS011;12726;49.148;8.582;2023-03-31T07:30:19;5.80;;;2.70;;
24557;SDS011;12726;49.148;8.582;2023-03-31T07:33:05;4.47;;;2.45;;
24557;SDS011;12726;49.148;8.582;2023-03-31T07:35:51;4.93;;;2.33;;
24557;SDS011;12726;49.148;8.582;2023-03-31T07:38:36;6.10;;;1.80;;
24557;SDS011;12726;49.148;8.582;2023-03-31T07:41:21;4.60;;;1.83;;
24557;SDS011;12726;49.148;8.582;2023-03-31T07:44:08;3.92;;;1.77;;
24557;SDS011;12726;49.148;8.582;2023-03-31T07:46:55;4.57;;;2.20;;
24557;SDS011;12726;49.148;8.582;2023-03-31T07:49:41;4.28;;;1.75;;
24557;SDS011;12726;49.148;8.582;2023-03-31T07:52:26;4.40;;;2.05;;
24557;SDS011;12726;49.148;8.582;2023-03-31T07:55:11;4.53;;;1.38;;
24557;SDS011;12726;49.148;8.582;2023-03-31T07:57:57;4.50;;;1.55;;
24557;SDS011;12726;49.148;8.582;2023-03-31T08:00:42;6.35;;;1.73;;
24557;SDS011;12726;49.148;8.582;2023-03-31T08:03:29;2.47;;;1.30;;
24557;SDS011;12726;49.148;8.582;2023-03-31T08:06:16;6.32;;;1.48;;
24557;SDS011;12726;49.148;8.582;2023-03-31T08:09:02;2.83;;;1.23;;
24557;SDS011;12726;49.148;8.582;2023-03-31T08:11:49;2.28;;;1.13;;
24557;SDS011;12726;49.148;8.582;2023-03-31T08:14:35;6.93;;;1.52;;
24557;SDS011;12726;49.148;8.582;2023-03-31T08:17:20;2.22;;;1.20;;
24557;SDS011;12726;49.148;8.582;2023-03-31T08:20:08;4.60;;;1.45;;
24557;SDS011;12726;49.148;8.582;2023-03-31T08:22:54;4.22;;;1.10;;
24557;SDS011;12726;49.148;8.582;2023-03-31T08:25:39;4.95;;;1.25;;
24557;SDS011;12726;49.148;8.582;2023-03-31T08:28:24;3.63;;;1.08;;
24557;SDS011;12726;49.148;8.582;2023-03-31T08:31:10;2.40;;;1.05;;
24557;SDS011;12726;49.148;8.582;2023-03-31T08:33:58;4.32;;;1.58;;
24557;SDS011;12726;49.148;8.582;2023-03-31T08:36:47;2.75;;;1.13;;
24557;SDS011;12726;49.148;8.582;2023-03-31T08:39:32;5.20;;;1.00;;
24557;SDS011;12726;49.148;8.582;2023-03-31T08:42:20;3.15;;;1.10;;
24557;SDS011;12726;49.148;8.582;2023-03-31T08:45:16;4.32;;;1.10;;
24557;SDS011;12726;49.148;8.582;2023-03-31T08:48:05;3.58;;;1.20;;
24557;SDS011;12726;49.148;8.582;2023-03-31T08:51:09;7.07;;;1.25;;
24557;SDS011;12726;49.148;8.582;2023-03-31T08:54:00;3.35;;;1.10;;
24557;SDS011;12726;49.148;8.582;2023-03-31T08:56:47;5.30;;;1.50;;
24557;SDS011;12726;49.148;8.582;2023-03-31T08:59:34;1.80;;;0.88;;
24557;SDS011;12726;49.148;8.582;2023-03-31T09:02:24;3.22;;;1.20;;
24557;SDS011;12726;49.148;8.582;2023-03-31T09:08:25;5.10;;;1.65;;
24557;SDS011;12726;49.148;8.582;2023-03-31T09:11:20;5.45;;;1.50;;
24557;SDS011;12726;49.148;8.582;2023-03-31T09:17:16;6.35;;;1.63;;
24557;SDS011;12726;49.148;8.582;2023-03-31T09:20:06;3.08;;;1.20;;
24557;SDS011;12726;49.148;8.582;2023-03-31T09:22:59;4.50;;;1.45;;
24557;SDS011;12726;49.148;8.582;2023-03-31T09:25:50;4.33;;;1.50;;
24557;SDS011;12726;49.148;8.582;2023-03-31T09:28:37;4.50;;;1.13;;
24557;SDS011;12726;49.148;8.582;2023-03-31T09:31:23;2.83;;;1.10;;
24557;SDS011;12726;49.148;8.582;2023-03-31T09:34:11;5.28;;;1.30;;
24557;SDS011;12726;49.148;8.582;2023-03-31T09:36:59;3.60;;;0.95;;
24557;SDS011;12726;49.148;8.582;2023-03-31T09:39:44;5.13;;;1.23;;
24557;SDS011;12726;49.148;8.582;2023-03-31T09:42:30;5.28;;;1.20;;
24557;SDS011;12726;49.148;8.582;2023-03-31T09:45:17;5.53;;;1.15;;
24557;SDS011;12726;49.148;8.582;2023-03-31T09:48:04;4.85;;;1.50;;
24557;SDS011;12726;49.148;8.582;2023-03-31T09:50:57;6.83;;;1.73;;
24557;SDS011;12726;49.148;8.582;2023-03-31T09:53:46;5.40;;;1.73;;
24557;SDS011;12726;49.148;8.582;2023-03-31T09:56:46;7.22;;;1.50;;
24557;SDS011;12726;49.148;8.582;2023-03-31T09:59:34;5.63;;;1.30;;
24557;SDS011;12726;49.148;8.582;2023-03-31T10:02:34;5.65;;;1.20;;
24557;SDS011;12726;49.148;8.582;2023-03-31T10:05:27;6.20;;;1.70;;
24557;SDS011;12726;49.148;8.582;2023-03-31T10:08:19;9.00;;;1.67;;
24557;SDS011;12726;49.148;8.582;2023-03-31T10:11:09;4.65;;;1.42;;
24557;SDS011;12726;49.148;8.582;2023-03-31T10:13:58;6.63;;;1.67;;
24557;SDS011;12726;49.148;8.582;2023-03-31T10:16:47;13.88;;;1.88;;
24557;SDS011;12726;49.148;8.582;2023-03-31T10:19:38;9.60;;;1.77;;
24557;SDS011;12726;49.148;8.582;2023-03-31T10:22:32;8.32;;;1.48;;
24557;SDS011;12726;49.148;8.582;2023-03-31T10:25:19;5.68;;;1.08;;
24557;SDS011;12726;49.148;8.582;2023-03-31T10:28:09;6.22;;;1.58;;
24557;SDS011;12726;49.148;8.582;2023-03-31T10:30:57;8.48;;;1.75;;
24557;SDS011;12726;49.148;8.582;2023-03-31T10:33:47;11.02;;;2.08;;
24557;SDS011;12726;49.148;8.582;2023-03-31T10:36:35;10.13;;;1.67;;
24557;SDS011;12726;49.148;8.582;2023-03-31T10:39:20;7.75;;;1.50;;
24557;SDS011;12726;49.148;8.582;2023-03-31T10:42:18;4.85;;;1.45;;
24557;SDS011;12726;49.148;8.582;2023-03-31T10:45:09;8.48;;;1.67;;
24557;SDS011;12726;49.148;8.582;2023-03-31T10:47:58;9.60;;;1.90;;
24557;SDS011;12726;49.148;8.582;2023-03-31T10:50:44;7.03;;;1.45;;
24557;SDS011;12726;49.148;8.582;2023-03-31T10:53:31;7.05;;;1.00;;
24557;SDS011;12726;49.148;8.582;2023-03-31T10:56:33;3.05;;;0.90;;
24557;SDS011;12726;49.148;8.582;2023-03-31T11:02:54;3.95;;;0.80;;
24557;SDS011;12726;49.148;8.582;2023-03-31T11:06:01;3.03;;;0.57;;
24557;SDS011;12726;49.148;8.582;2023-03-31T11:08:58;3.03;;;0.80;;
24557;SDS011;12726;49.148;8.582;2023-03-31T11:11:57;8.25;;;1.00;;
24557;SDS011;12726;49.148;8.582;2023-03-31T11:14:51;5.43;;;0.98;;
24557;SDS011;12726;49.148;8.582;2023-03-31T11:17:51;7.43;;;1.20;;
24557;SDS011;12726;49.148;8.582;2023-03-31T11:20:49;4.90;;;1.30;;
24557;SDS011;12726;49.148;8.582;2023-03-31T11:23:45;6.03;;;1.70;;
24557;SDS011;12726;49.148;8.582;2023-03-31T11:26:41;4.15;;;1.05;;
24557;SDS011;12726;49.148;8.582;2023-03-31T11:29:34;2.65;;;0.63;;
24557;SDS011;12726;49.148;8.582;2023-03-31T11:32:27;4.78;;;0.60;;
24557;SDS011;12726;49.148;8.582;2023-03-31T11:35:30;3.17;;;0.52;;
24557;SDS011;12726;49.148;8.582;2023-03-31T11:38:29;4.50;;;0.63;;
24557;SDS011;12726;49.148;8.582;2023-03-31T11:41:27;4.63;;;0.88;;
24557;SDS011;12726;49.148;8.582;2023-03-31T11:44:20;4.05;;;1.58;;
24557;SDS011;12726;49.148;8.582;2023-03-31T11:47:08;2.22;;;0.60;;
24557;SDS011;12726;49.148;8.582;2023-03-31T11:49:58;7.95;;;0.82;;
24557;SDS011;12726;49.148;8.582;2023-03-31T11:52:48;6.57;;;1.15;;
24557;SDS011;12726;49.148;8.582;2023-03-31T11:55:38;4.70;;;0.57;;
24557;SDS011;12726;49.148;8.582;2023-03-31T11:58:26;2.50;;;0.60;;
24557;SDS011;12726;49.148;8.582;2023-03-31T12:01:19;2.92;;;0.38;;
24557;SDS011;12726;49.148;8.582;2023-03-31T12:04:13;0.75;;;0.30;;
24557;SDS011;12726;49.148;8.582;2023-03-31T12:07:11;3.40;;;0.57;;
24557;SDS011;12726;49.148;8.582;2023-03-31T12:10:10;1.77;;;0.50;;
24557;SDS011;12726;49.148;8.582;2023-03-31T12:13:04;0.95;;;0.43;;
24557;SDS011;12726;49.148;8.582;2023-03-31T12:16:00;0.70;;;0.30;;
24557;SDS011;12726;49.148;8.582;2023-03-31T12:18:56;3.25;;;0.60;;
24557;SDS011;12726;49.148;8.582;2023-03-31T12:21:48;2.63;;;0.73;;
24557;SDS011;12726;49.148;8.582;2023-03-31T12:24:35;2.50;;;0.65;;
24557;SDS011;12726;49.148;8.582;2023-03-31T12:27:22;2.22;;;0.40;;
24557;SDS011;12726;49.148;8.582;2023-03-31T12:30:11;2.78;;;0.85;;
24557;SDS011;12726;49.148;8.582;2023-03-31T12:33:00;2.17;;;0.50;;
24557;SDS011;12726;49.148;8.582;2023-03-31T12:36:00;2.95;;;0.60;;
24557;SDS011;12726;49.148;8.582;2023-03-31T12:39:01;2.30;;;0.60;;
24557;SDS011;12726;49.148;8.582;2023-03-31T12:42:05;2.67;;;0.70;;
24557;SDS011;12726;49.148;8.582;2023-03-31T12:45:10;4.03;;;1.05;;
24557;SDS011;12726;49.148;8.582;2023-03-31T12:48:08;4.22;;;0.63;;
24557;SDS011;12726;49.148;8.582;2023-03-31T12:51:21;2.60;;;0.70;;
24557;SDS011;12726;49.148;8.582;2023-03-31T12:54:24;2.20;;;0.50;;
24557;SDS011;12726;49.148;8.582;2023-03-31T12:57:23;2.67;;;0.60;;
24557;SDS011;12726;49.148;8.582;2023-03-31T13:00:22;2.08;;;0.57;;
24557;SDS011;12726;49.148;8.582;2023-03-31T13:06:47;1.63;;;0.50;;
24557;SDS011;12726;49.148;8.582;2023-03-31T13:09:40;1.50;;;0.60;;
24557;SDS011;12726;49.148;8.582;2023-03-31T13:12:30;2.95;;;0.40;;
24557;SDS011;12726;49.148;8.582;2023-03-31T13:15:18;4.05;;;0.80;;
24557;SDS011;12726;49.148;8.582;2023-03-31T13:18:14;3.05;;;0.80;;
24557;SDS011;12726;49.148;8.582;2023-03-31T13:21:04;6.07;;;0.70;;
24557;SDS011;12726;49.148;8.582;2023-03-31T13:23:51;2.88;;;0.60;;
24557;SDS011;12726;49.148;8.582;2023-03-31T13:26:38;3.50;;;0.60;;
24557;SDS011;12726;49.148;8.582;2023-03-31T13:29:25;2.70;;;0.57;;
24557;SDS011;12726;49.148;8.582;2023-03-31T13:32:24;4.28;;;0.70;;
24557;SDS011;12726;49.148;8.582;2023-03-31T13:35:13;3.00;;;0.60;;
24557;SDS011;12726;49.148;8.582;2023-03-31T13:38:05;3.08;;;0.60;;
24557;SDS011;12726;49.148;8.582;2023-03-31T13:41:01;2.63;;;0.80;;
24557;SDS011;12726;49.148;8.582;2023-03-31T13:44:03;4.50;;;0.60;;
24557;SDS011;12726;49.148;8.582;2023-03-31T13:47:14;3.40;;;0.80;;
24557;SDS011;12726;49.148;8.582;2023-03-31T13:50:28;2.95;;;0.70;;
24557;SDS011;12726;49.148;8.582;2023-03-31T13:57:08;5.35;;;0.88;;
24557;SDS011;12726;49.148;8.582;2023-03-31T14:00:20;4.55;;;0.95;;
24557;SDS011;12726;49.148;8.582;2023-03-31T14:03:20;4.72;;;0.77;;
24557;SDS011;12726;49.148;8.582;2023-03-31T14:06:17;4.22;;;1.38;;
24557;SDS011;12726;49.148;8.582;2023-03-31T14:09:08;4.45;;;0.80;;
24557;SDS011;12726;49.148;8.582;2023-03-31T14:11:57;3.00;;;0.80;;
24557;SDS011;12726;49.148;8.582;2023-03-31T14:14:44;2.58;;;0.50;;
24557;SDS011;12726;49.148;8.582;2023-03-31T14:17:29;4.82;;;0.90;;
24557;SDS011;12726;49.148;8.582;2023-03-31T14:20:27;4.40;;;0.75;;
24557;SDS011;12726;49.148;8.582;2023-03-31T14:23:25;4.72;;;0.68;;
24557;SDS011;12726;49.148;8.582;2023-03-31T14:26:20;3.05;;;0.85;;
24557;SDS011;12726;49.148;8.582;2023-03-31T14:29:21;5.03;;;0.70;;
24557;SDS011;12726;49.148;8.582;2023-03-31T14:32:18;1.80;;;0.80;;
24557;SDS011;12726;49.148;8.582;2023-03-31T14:35:19;4.28;;;0.85;;
24557;SDS011;12726;49.148;8.582;2023-03-31T14:38:13;2.30;;;0.40;;
24557;SDS011;12726;49.148;8.582;2023-03-31T14:41:02;2.65;;;0.80;;
24557;SDS011;12726;49.148;8.582;2023-03-31T14:43:48;4.80;;;0.90;;
24557;SDS011;12726;49.148;8.582;2023-03-31T14:46:36;3.55;;;0.70;;
24557;SDS011;12726;49.148;8.582;2023-03-31T14:49:25;2.45;;;0.52;;
24557;SDS011;12726;49.148;8.582;2023-03-31T14:52:13;2.22;;;0.77;;
24557;SDS011;12726;49.148;8.582;2023-03-31T14:55:00;2.85;;;0.70;;
24557;SDS011;12726;49.148;8.582;2023-03-31T14:57:46;1.77;;;0.50;;
24557;SDS011;12726;49.148;8.582;2023-03-31T15:00:34;3.17;;;0.75;;
24557;SDS011;12726;49.148;8.582;2023-03-31T15:03:22;2.15;;;0.73;;
24557;SDS011;12726;49.148;8.582;2023-03-31T15:06:11;2.88;;;0.60;;
24557;SDS011;12726;49.148;8.582;2023-03-31T15:08:59;3.85;;;0.60;;
24557;SDS011;12726;49.148;8.582;2023-03-31T15:11:47;1.83;;;0.60;;
24557;SDS011;12726;49.148;8.582;2023-03-31T15:14:41;1.58;;;0.45;;
24557;SDS011;12726;49.148;8.582;2023-03-31T15:17:29;2.42;;;0.75;;
24557;SDS011;12726;49.148;8.582;2023-03-31T15:20:22;1.13;;;0.40;;
24557;SDS011;12726;49.148;8.582;2023-03-31T15:23:20;3.40;;;0.50;;
24557;SDS011;12726;49.148;8.582;2023-03-31T15:26:08;3.95;;;0.73;;
24557;SDS011;12726;49.148;8.582;2023-03-31T15:28:57;1.02;;;0.45;;
24557;SDS011;12726;49.148;8.582;2023-03-31T15:31:47;3.42;;;0.65;;
24557;SDS011;12726;49.148;8.582;2023-03-31T15:34:33;1.67;;;0.50;;
24557;SDS011;12726;49.148;8.582;2023-03-31T15:37:20;5.10;;;0.70;;
24557;SDS011;12726;49.148;8.582;2023-03-31T15:40:14;2.05;;;0.63;;
24557;SDS011;12726;49.148;8.582;2023-03-31T15:43:05;1.80;;;0.45;;
24557;SDS011;12726;49.148;8.582;2023-03-31T15:45:56;1.08;;;0.50;;
24557;SDS011;12726;49.148;8.582;2023-03-31T15:48:47;2.55;;;0.55;;
24557;SDS011;12726;49.148;8.582;2023-03-31T15:51:36;1.80;;;0.47;;
24557;SDS011;12726;49.148;8.582;2023-03-31T15:54:29;4.65;;;0.85;;
24557;SDS011;12726;49.148;8.582;2023-03-31T15:57:18;2.10;;;0.65;;
24557;SDS011;12726;49.148;8.582;2023-03-31T16:00:05;1.73;;;0.68;;
24557;SDS011;12726;49.148;8.582;2023-03-31T16:03:15;2.15;;;0.60;;
24557;SDS011;12726;49.148;8.582;2023-03-31T16:06:03;5.32;;;0.75;;
24557;SDS011;12726;49.148;8.582;2023-03-31T16:08:55;2.55;;;0.50;;
24557;SDS011;12726;49.148;8.582;2023-03-31T16:11:47;4.05;;;0.65;;
24557;SDS011;12726;49.148;8.582;2023-03-31T16:14:37;4.28;;;0.68;;
24557;SDS011;12726;49.148;8.582;2023-03-31T16:20:27;3.13;;;0.65;;
24557;SDS011;12726;49.148;8.582;2023-03-31T16:23:16;4.35;;;0.80;;
24557;SDS011;12726;49.148;8.582;2023-03-31T16:26:05;3.22;;;0.80;;
24557;SDS011;12726;49.148;8.582;2023-03-31T16:28:51;1.20;;;0.50;;
24557;SDS011;12726;49.148;8.582;2023-03-31T16:31:41;1.42;;;0.40;;
24557;SDS011;12726;49.148;8.582;2023-03-31T16:34:27;1.25;;;0.55;;
24557;SDS011;12726;49.148;8.582;2023-03-31T16:37:15;0.88;;;0.40;;
24557;SDS011;12726;49.148;8.582;2023-03-31T16:40:00;3.25;;;0.65;;
24557;SDS011;12726;49.148;8.582;2023-03-31T16:42:48;2.67;;;0.65;;
24557;SDS011;12726;49.148;8.582;2023-03-31T16:45:34;0.82;;;0.40;;
24557;SDS011;12726;49.148;8.582;2023-03-31T16:48:21;2.38;;;0.30;;
24557;SDS011;12726;49.148;8.582;2023-03-31T16:51:08;3.00;;;0.40;;
24557;SDS011;12726;49.148;8.582;2023-03-31T16:53:56;2.85;;;0.52;;
24557;SDS011;12726;49.148;8.582;2023-03-31T16:56:42;2.83;;;0.32;;
24557;SDS011;12726;49.148;8.582;2023-03-31T16:59:27;2.38;;;0.35;;
24557;SDS011;12726;49.148;8.582;2023-03-31T17:02:13;3.95;;;0.93;;
24557;SDS011;12726;49.148;8.582;2023-03-31T17:04:59;2.53;;;0.30;;
24557;SDS011;12726;49.148;8.582;2023-03-31T17:07:45;2.83;;;0.43;;
24557;SDS011;12726;49.148;8.582;2023-03-31T17:10:31;3.60;;;0.60;;
24557;SDS011;12726;49.148;8.582;2023-03-31T17:13:16;2.88;;;0.50;;
24557;SDS011;12726;49.148;8.582;2023-03-31T17:16:01;2.45;;;0.50;;
24557;SDS011;12726;49.148;8.582;2023-03-31T17:18:49;3.83;;;0.50;;
24557;SDS011;12726;49.148;8.582;2023-03-31T17:21:39;3.05;;;0.55;;
24557;SDS011;12726;49.148;8.582;2023-03-31T17:24:25;5.38;;;0.70;;
24557;SDS011;12726;49.148;8.582;2023-03-31T17:27:10;0.88;;;0.50;;
24557;SDS011;12726;49.148;8.582;2023-03-31T17:29:56;1.48;;;0.45;;
24557;SDS011;12726;49.148;8.582;2023-03-31T17:32:41;1.70;;;0.60;;
24557;SDS011;12726;49.148;8.582;2023-03-31T17:35:26;1.77;;;0.60;;
24557;SDS011;12726;49.148;8.582;2023-03-31T17:38:13;1.58;;;0.45;;